sensor_id;sensor_type;location;lat;lon;timestamp;P1;durP1;ratioP1;P2;durP2;ratioP2
16593;SDS011;8410;52.532;13.336;2023-07-22T00:00:14;11.17;;;10.13;;
16593;SDS011;8410;52.532;13.336;2023-07-22T00:02:42;6.53;;;6.03;;
16593;SDS011;8410;52.532;13.336;2023-07-22T00:05:10;6.00;;;5.50;;
16593;SDS011;8410;52.532;13.336;2023-07-22T00:07:37;5.90;;;5.30;;
16593;SDS011;8410;52.532;13.336;2023-07-22T00:10:06;7.77;;;7.17;;
16593;SDS011;8410;52.532;13.336;2023-07-22T00:12:35;5.67;;;5.27;;
16593;SDS011;8410;52.532;13.336;2023-07-22T00:15:04;6.50;;;6.00;;
16593;SDS011;8410;52.532;13.336;2023-07-22T00:17:33;5.90;;;5.30;;
16593;SDS011;8410;52.532;13.336;2023-07-22T00:20:00;5.90;;;5.50;;
16593;SDS011;8410;52.532;13.336;2023-07-22T00:22:30;11.10;;;10.03;;
16593;SDS011;8410;52.532;13.336;2023-07-22T00:24:58;6.23;;;5.73;;
16593;SDS011;8410;52.532;13.336;2023-07-22T00:27:27;5.97;;;5.47;;
16593;SDS011;8410;52.532;13.336;2023-07-22T00:29:54;5.77;;;5.27;;
16593;SDS011;8410;52.532;13.336;2023-07-22T00:32:23;7.20;;;6.60;;
16593;SDS011;8410;52.532;13.336;2023-07-22T00:34:51;6.53;;;6.03;;
16593;SDS011;8410;52.532;13.336;2023-07-22T00:37:18;5.93;;;5.43;;
16593;SDS011;8410;52.532;13.336;2023-07-22T00:39:46;5.87;;;5.37;;
16593;SDS011;8410;52.532;13.336;2023-07-22T00:42:13;5.80;;;5.30;;
16593;SDS011;8410;52.532;13.336;2023-07-22T00:44:41;5.20;;;4.73;;
16593;SDS011;8410;52.532;13.336;2023-07-22T00:47:08;5.57;;;5.17;;
16593;SDS011;8410;52.532;13.336;2023-07-22T00:49:38;68.13;;;60.70;;
16593;SDS011;8410;52.532;13.336;2023-07-22T00:52:05;40.53;;;36.57;;
16593;SDS011;8410;52.532;13.336;2023-07-22T00:54:33;28.87;;;25.93;;
16593;SDS011;8410;52.532;13.336;2023-07-22T00:57:00;44.70;;;40.20;;
16593;SDS011;8410;52.532;13.336;2023-07-22T00:59:28;33.50;;;30.10;;
16593;SDS011;8410;52.532;13.336;2023-07-22T01:01:55;24.07;;;21.83;;
16593;SDS011;8410;52.532;13.336;2023-07-22T01:04:23;10.83;;;9.77;;
16593;SDS011;8410;52.532;13.336;2023-07-22T01:06:53;5.77;;;5.33;;
16593;SDS011;8410;52.532;13.336;2023-07-22T01:09:21;7.20;;;6.50;;
16593;SDS011;8410;52.532;13.336;2023-07-22T01:11:49;6.53;;;5.93;;
16593;SDS011;8410;52.532;13.336;2023-07-22T01:14:16;5.27;;;4.67;;
16593;SDS011;8410;52.532;13.336;2023-07-22T01:16:44;6.87;;;6.27;;
16593;SDS011;8410;52.532;13.336;2023-07-22T01:19:11;6.70;;;6.10;;
16593;SDS011;8410;52.532;13.336;2023-07-22T01:21:42;6.07;;;5.50;;
16593;SDS011;8410;52.532;13.336;2023-07-22T01:24:11;5.97;;;5.47;;
16593;SDS011;8410;52.532;13.336;2023-07-22T01:26:38;6.43;;;5.83;;
16593;SDS011;8410;52.532;13.336;2023-07-22T01:29:06;6.27;;;5.67;;
16593;SDS011;8410;52.532;13.336;2023-07-22T01:31:34;5.80;;;5.30;;
16593;SDS011;8410;52.532;13.336;2023-07-22T01:34:02;6.83;;;5.83;;
16593;SDS011;8410;52.532;13.336;2023-07-22T01:36:30;15.47;;;14.03;;
16593;SDS011;8410;52.532;13.336;2023-07-22T01:38:57;7.30;;;6.67;;
16593;SDS011;8410;52.532;13.336;2023-07-22T01:41:26;6.10;;;5.60;;
16593;SDS011;8410;52.532;13.336;2023-07-22T01:43:54;6.83;;;6.23;;
16593;SDS011;8410;52.532;13.336;2023-07-22T01:46:21;6.30;;;5.80;;
16593;SDS011;8410;52.532;13.336;2023-07-22T01:48:49;6.17;;;5.67;;
16593;SDS011;8410;52.532;13.336;2023-07-22T01:51:16;8.20;;;6.20;;
16593;SDS011;8410;52.532;13.336;2023-07-22T01:53:44;7.27;;;6.57;;
16593;SDS011;8410;52.532;13.336;2023-07-22T01:56:11;6.23;;;5.63;;
16593;SDS011;8410;52.532;13.336;2023-07-22T01:58:40;6.13;;;5.60;;
16593;SDS011;8410;52.532;13.336;2023-07-22T02:01:08;6.63;;;6.07;;
16593;SDS011;8410;52.532;13.336;2023-07-22T02:03:35;6.23;;;5.77;;
16593;SDS011;8410;52.532;13.336;2023-07-22T02:06:03;8.10;;;6.43;;
16593;SDS011;8410;52.532;13.336;2023-07-22T02:08:32;8.93;;;6.90;;
16593;SDS011;8410;52.532;13.336;2023-07-22T02:11:01;6.73;;;6.13;;
16593;SDS011;8410;52.532;13.336;2023-07-22T02:13:30;7.27;;;6.57;;
16593;SDS011;8410;52.532;13.336;2023-07-22T02:15:59;7.60;;;6.83;;
16593;SDS011;8410;52.532;13.336;2023-07-22T02:18:27;6.97;;;6.37;;
16593;SDS011;8410;52.532;13.336;2023-07-22T02:20:55;6.60;;;6.10;;
16593;SDS011;8410;52.532;13.336;2023-07-22T02:23:23;6.63;;;6.07;;
16593;SDS011;8410;52.532;13.336;2023-07-22T02:25:51;5.83;;;5.33;;
16593;SDS011;8410;52.532;13.336;2023-07-22T02:28:19;5.53;;;5.03;;
16593;SDS011;8410;52.532;13.336;2023-07-22T02:30:49;5.43;;;4.83;;
16593;SDS011;8410;52.532;13.336;2023-07-22T02:33:20;7.47;;;4.50;;
16593;SDS011;8410;52.532;13.336;2023-07-22T02:36:03;5.25;;;4.82;;
16593;SDS011;8410;52.532;13.336;2023-07-22T02:38:30;5.17;;;4.70;;
16593;SDS011;8410;52.532;13.336;2023-07-22T02:41:01;4.60;;;4.20;;
16593;SDS011;8410;52.532;13.336;2023-07-22T02:43:29;5.10;;;4.70;;
16593;SDS011;8410;52.532;13.336;2023-07-22T02:45:56;5.60;;;4.60;;
16593;SDS011;8410;52.532;13.336;2023-07-22T02:48:25;4.47;;;4.07;;
16593;SDS011;8410;52.532;13.336;2023-07-22T02:50:52;4.50;;;4.10;;
16593;SDS011;8410;52.532;13.336;2023-07-22T02:53:20;5.37;;;4.33;;
16593;SDS011;8410;52.532;13.336;2023-07-22T02:55:47;4.00;;;3.70;;
16593;SDS011;8410;52.532;13.336;2023-07-22T02:58:15;4.63;;;4.23;;
16593;SDS011;8410;52.532;13.336;2023-07-22T03:00:43;5.33;;;4.00;;
16593;SDS011;8410;52.532;13.336;2023-07-22T03:03:10;4.07;;;3.77;;
16593;SDS011;8410;52.532;13.336;2023-07-22T03:05:39;4.37;;;4.07;;
16593;SDS011;8410;52.532;13.336;2023-07-22T03:08:06;3.77;;;3.53;;
16593;SDS011;8410;52.532;13.336;2023-07-22T03:10:34;5.27;;;4.03;;
16593;SDS011;8410;52.532;13.336;2023-07-22T03:13:01;4.53;;;4.13;;
16593;SDS011;8410;52.532;13.336;2023-07-22T03:15:29;4.47;;;4.07;;
16593;SDS011;8410;52.532;13.336;2023-07-22T03:17:57;5.17;;;4.43;;
16593;SDS011;8410;52.532;13.336;2023-07-22T03:20:25;4.80;;;4.40;;
16593;SDS011;8410;52.532;13.336;2023-07-22T03:22:54;4.83;;;4.33;;
16593;SDS011;8410;52.532;13.336;2023-07-22T03:25:22;5.23;;;4.10;;
16593;SDS011;8410;52.532;13.336;2023-07-22T03:27:49;4.80;;;4.40;;
16593;SDS011;8410;52.532;13.336;2023-07-22T03:30:17;4.47;;;4.07;;
16593;SDS011;8410;52.532;13.336;2023-07-22T03:32:49;4.77;;;4.37;;
16593;SDS011;8410;52.532;13.336;2023-07-22T03:35:17;4.47;;;4.07;;
16593;SDS011;8410;52.532;13.336;2023-07-22T03:37:45;4.57;;;4.23;;
16593;SDS011;8410;52.532;13.336;2023-07-22T03:40:14;4.30;;;4.00;;
16593;SDS011;8410;52.532;13.336;2023-07-22T03:42:46;4.83;;;4.43;;
16593;SDS011;8410;52.532;13.336;2023-07-22T03:45:13;6.13;;;4.63;;
16593;SDS011;8410;52.532;13.336;2023-07-22T03:47:41;4.80;;;4.50;;
16593;SDS011;8410;52.532;13.336;2023-07-22T03:50:11;4.97;;;4.47;;
16593;SDS011;8410;52.532;13.336;2023-07-22T03:52:39;4.87;;;4.27;;
16593;SDS011;8410;52.532;13.336;2023-07-22T03:55:07;5.67;;;4.80;;
16593;SDS011;8410;52.532;13.336;2023-07-22T03:57:36;5.17;;;4.67;;
16593;SDS011;8410;52.532;13.336;2023-07-22T04:00:05;4.90;;;4.40;;
16593;SDS011;8410;52.532;13.336;2023-07-22T04:02:35;9.27;;;4.50;;
16593;SDS011;8410;52.532;13.336;2023-07-22T04:05:03;4.27;;;3.77;;
16593;SDS011;8410;52.532;13.336;2023-07-22T04:07:31;4.57;;;4.17;;
16593;SDS011;8410;52.532;13.336;2023-07-22T04:09:59;6.20;;;5.33;;
16593;SDS011;8410;52.532;13.336;2023-07-22T04:12:26;12.90;;;11.83;;
16593;SDS011;8410;52.532;13.336;2023-07-22T04:14:56;5.93;;;4.75;;
16593;SDS011;8410;52.532;13.336;2023-07-22T04:17:24;9.70;;;8.73;;
16593;SDS011;8410;52.532;13.336;2023-07-22T04:19:51;3.90;;;3.42;;
16593;SDS011;8410;52.532;13.336;2023-07-22T04:22:19;6.68;;;4.03;;
16593;SDS011;8410;52.532;13.336;2023-07-22T04:24:47;5.82;;;4.40;;
16593;SDS011;8410;52.532;13.336;2023-07-22T04:27:15;2.97;;;2.75;;
16593;SDS011;8410;52.532;13.336;2023-07-22T04:29:43;3.55;;;3.13;;
16593;SDS011;8410;52.532;13.336;2023-07-22T04:32:12;5.55;;;2.80;;
16593;SDS011;8410;52.532;13.336;2023-07-22T04:34:39;3.33;;;2.63;;
16593;SDS011;8410;52.532;13.336;2023-07-22T04:37:07;6.60;;;3.50;;
16593;SDS011;8410;52.532;13.336;2023-07-22T04:39:34;4.97;;;2.70;;
16593;SDS011;8410;52.532;13.336;2023-07-22T04:42:02;3.38;;;2.35;;
16593;SDS011;8410;52.532;13.336;2023-07-22T04:44:30;2.50;;;2.30;;
16593;SDS011;8410;52.532;13.336;2023-07-22T04:46:57;3.20;;;2.50;;
16593;SDS011;8410;52.532;13.336;2023-07-22T04:49:27;2.42;;;2.22;;
16593;SDS011;8410;52.532;13.336;2023-07-22T04:51:55;2.65;;;2.35;;
16593;SDS011;8410;52.532;13.336;2023-07-22T04:54:22;2.83;;;2.58;;
16593;SDS011;8410;52.532;13.336;2023-07-22T04:56:49;3.17;;;2.97;;
16593;SDS011;8410;52.532;13.336;2023-07-22T04:59:18;4.22;;;3.38;;
16593;SDS011;8410;52.532;13.336;2023-07-22T05:01:45;3.88;;;3.15;;
16593;SDS011;8410;52.532;13.336;2023-07-22T05:04:13;4.25;;;3.72;;
16593;SDS011;8410;52.532;13.336;2023-07-22T05:06:42;3.97;;;3.58;;
16593;SDS011;8410;52.532;13.336;2023-07-22T05:09:09;5.03;;;3.47;;
16593;SDS011;8410;52.532;13.336;2023-07-22T05:11:37;5.22;;;3.70;;
16593;SDS011;8410;52.532;13.336;2023-07-22T05:14:04;5.35;;;4.50;;
16593;SDS011;8410;52.532;13.336;2023-07-22T05:16:32;4.90;;;4.18;;
16593;SDS011;8410;52.532;13.336;2023-07-22T05:18:59;4.78;;;4.03;;
16593;SDS011;8410;52.532;13.336;2023-07-22T05:21:27;4.80;;;4.40;;
16593;SDS011;8410;52.532;13.336;2023-07-22T05:23:56;4.87;;;4.47;;
16593;SDS011;8410;52.532;13.336;2023-07-22T05:26:24;5.57;;;4.73;;
16593;SDS011;8410;52.532;13.336;2023-07-22T05:28:52;4.40;;;4.00;;
16593;SDS011;8410;52.532;13.336;2023-07-22T05:31:19;5.60;;;5.00;;
16593;SDS011;8410;52.532;13.336;2023-07-22T05:33:47;6.87;;;4.80;;
16593;SDS011;8410;52.532;13.336;2023-07-22T05:36:15;5.63;;;4.90;;
16593;SDS011;8410;52.532;13.336;2023-07-22T05:38:42;5.18;;;4.72;;
16593;SDS011;8410;52.532;13.336;2023-07-22T05:41:11;6.38;;;5.40;;
16593;SDS011;8410;52.532;13.336;2023-07-22T05:43:38;6.00;;;5.40;;
16593;SDS011;8410;52.532;13.336;2023-07-22T05:46:06;6.78;;;5.80;;
16593;SDS011;8410;52.532;13.336;2023-07-22T05:48:33;9.68;;;5.65;;
16593;SDS011;8410;52.532;13.336;2023-07-22T05:51:01;7.25;;;6.18;;
16593;SDS011;8410;52.532;13.336;2023-07-22T05:53:28;6.40;;;5.70;;
16593;SDS011;8410;52.532;13.336;2023-07-22T05:55:56;9.23;;;7.03;;
16593;SDS011;8410;52.532;13.336;2023-07-22T05:58:24;6.90;;;6.07;;
16593;SDS011;8410;52.532;13.336;2023-07-22T06:00:53;6.50;;;5.85;;
16593;SDS011;8410;52.532;13.336;2023-07-22T06:03:21;7.30;;;6.43;;
16593;SDS011;8410;52.532;13.336;2023-07-22T06:05:49;7.75;;;6.97;;
16593;SDS011;8410;52.532;13.336;2023-07-22T06:08:16;7.37;;;6.73;;
16593;SDS011;8410;52.532;13.336;2023-07-22T06:10:44;7.00;;;6.30;;
16593;SDS011;8410;52.532;13.336;2023-07-22T06:13:11;6.83;;;6.00;;
16593;SDS011;8410;52.532;13.336;2023-07-22T06:15:40;7.40;;;6.70;;
16593;SDS011;8410;52.532;13.336;2023-07-22T06:18:07;7.22;;;6.53;;
16593;SDS011;8410;52.532;13.336;2023-07-22T06:20:35;7.87;;;6.13;;
16593;SDS011;8410;52.532;13.336;2023-07-22T06:23:03;7.43;;;6.23;;
16593;SDS011;8410;52.532;13.336;2023-07-22T06:25:30;7.43;;;6.17;;
16593;SDS011;8410;52.532;13.336;2023-07-22T06:27:58;6.50;;;5.90;;
16593;SDS011;8410;52.532;13.336;2023-07-22T06:30:25;6.57;;;5.90;;
16593;SDS011;8410;52.532;13.336;2023-07-22T06:32:54;7.43;;;6.18;;
16593;SDS011;8410;52.532;13.336;2023-07-22T06:35:22;9.73;;;6.35;;
16593;SDS011;8410;52.532;13.336;2023-07-22T06:37:49;7.72;;;5.57;;
16593;SDS011;8410;52.532;13.336;2023-07-22T06:40:17;8.43;;;6.00;;
16593;SDS011;8410;52.532;13.336;2023-07-22T06:42:45;7.97;;;5.90;;
16593;SDS011;8410;52.532;13.336;2023-07-22T06:45:12;6.47;;;5.75;;
16593;SDS011;8410;52.532;13.336;2023-07-22T06:47:40;7.93;;;6.28;;
16593;SDS011;8410;52.532;13.336;2023-07-22T06:50:09;9.15;;;5.55;;
16593;SDS011;8410;52.532;13.336;2023-07-22T06:52:37;7.28;;;5.20;;
16593;SDS011;8410;52.532;13.336;2023-07-22T06:55:04;6.78;;;5.05;;
16593;SDS011;8410;52.532;13.336;2023-07-22T06:57:32;6.60;;;4.93;;
16593;SDS011;8410;52.532;13.336;2023-07-22T07:00:00;4.95;;;4.32;;
16593;SDS011;8410;52.532;13.336;2023-07-22T07:02:28;5.45;;;4.35;;
16593;SDS011;8410;52.532;13.336;2023-07-22T07:04:55;4.88;;;4.38;;
16593;SDS011;8410;52.532;13.336;2023-07-22T07:07:24;5.13;;;4.05;;
16593;SDS011;8410;52.532;13.336;2023-07-22T07:09:51;5.53;;;4.00;;
16593;SDS011;8410;52.532;13.336;2023-07-22T07:12:19;8.00;;;4.00;;
16593;SDS011;8410;52.532;13.336;2023-07-22T07:14:49;5.88;;;4.15;;
16593;SDS011;8410;52.532;13.336;2023-07-22T07:17:17;4.17;;;3.77;;
16593;SDS011;8410;52.532;13.336;2023-07-22T07:19:44;6.40;;;3.90;;
16593;SDS011;8410;52.532;13.336;2023-07-22T07:22:12;6.65;;;4.68;;
16593;SDS011;8410;52.532;13.336;2023-07-22T07:24:40;5.20;;;3.90;;
16593;SDS011;8410;52.532;13.336;2023-07-22T07:27:08;6.63;;;4.50;;
16593;SDS011;8410;52.532;13.336;2023-07-22T07:29:35;6.70;;;4.38;;
16593;SDS011;8410;52.532;13.336;2023-07-22T07:32:19;4.68;;;4.03;;
16593;SDS011;8410;52.532;13.336;2023-07-22T07:34:47;5.45;;;3.60;;
16593;SDS011;8410;52.532;13.336;2023-07-22T07:37:15;6.97;;;4.55;;
16593;SDS011;8410;52.532;13.336;2023-07-22T07:39:43;6.55;;;3.85;;
16593;SDS011;8410;52.532;13.336;2023-07-22T07:42:11;7.85;;;4.80;;
16593;SDS011;8410;52.532;13.336;2023-07-22T07:44:38;4.82;;;4.07;;
16593;SDS011;8410;52.532;13.336;2023-07-22T07:47:06;7.97;;;4.38;;
16593;SDS011;8410;52.532;13.336;2023-07-22T07:49:33;4.60;;;4.03;;
16593;SDS011;8410;52.532;13.336;2023-07-22T07:52:01;6.45;;;4.03;;
16593;SDS011;8410;52.532;13.336;2023-07-22T07:54:28;6.88;;;4.35;;
16593;SDS011;8410;52.532;13.336;2023-07-22T07:56:59;4.88;;;4.30;;
16593;SDS011;8410;52.532;13.336;2023-07-22T07:59:27;6.97;;;4.00;;
16593;SDS011;8410;52.532;13.336;2023-07-22T08:01:54;4.93;;;3.72;;
16593;SDS011;8410;52.532;13.336;2023-07-22T08:04:22;5.40;;;4.28;;
16593;SDS011;8410;52.532;13.336;2023-07-22T08:06:49;12.52;;;4.18;;
16593;SDS011;8410;52.532;13.336;2023-07-22T08:09:17;5.90;;;4.05;;
16593;SDS011;8410;52.532;13.336;2023-07-22T08:11:46;7.03;;;4.38;;
16593;SDS011;8410;52.532;13.336;2023-07-22T08:14:15;5.35;;;4.55;;
16593;SDS011;8410;52.532;13.336;2023-07-22T08:16:43;6.70;;;4.22;;
16593;SDS011;8410;52.532;13.336;2023-07-22T08:19:11;5.47;;;4.22;;
16593;SDS011;8410;52.532;13.336;2023-07-22T08:21:38;6.22;;;4.80;;
16593;SDS011;8410;52.532;13.336;2023-07-22T08:24:05;5.68;;;4.97;;
16593;SDS011;8410;52.532;13.336;2023-07-22T08:26:33;5.57;;;5.05;;
16593;SDS011;8410;52.532;13.336;2023-07-22T08:29:01;5.35;;;4.82;;
16593;SDS011;8410;52.532;13.336;2023-07-22T08:31:29;5.95;;;4.80;;
16593;SDS011;8410;52.532;13.336;2023-07-22T08:33:57;6.28;;;4.28;;
16593;SDS011;8410;52.532;13.336;2023-07-22T08:36:24;6.45;;;3.80;;
16593;SDS011;8410;52.532;13.336;2023-07-22T08:38:53;4.85;;;4.38;;
16593;SDS011;8410;52.532;13.336;2023-07-22T08:41:20;5.30;;;4.43;;
16593;SDS011;8410;52.532;13.336;2023-07-22T08:43:49;5.63;;;4.40;;
16593;SDS011;8410;52.532;13.336;2023-07-22T08:46:19;7.18;;;4.43;;
16593;SDS011;8410;52.532;13.336;2023-07-22T08:48:49;6.38;;;4.38;;
16593;SDS011;8410;52.532;13.336;2023-07-22T08:51:20;4.88;;;4.43;;
16593;SDS011;8410;52.532;13.336;2023-07-22T08:53:49;4.95;;;4.10;;
16593;SDS011;8410;52.532;13.336;2023-07-22T08:56:35;5.03;;;4.00;;
16593;SDS011;8410;52.532;13.336;2023-07-22T08:59:04;5.43;;;4.32;;
16593;SDS011;8410;52.532;13.336;2023-07-22T09:01:33;9.02;;;4.60;;
16593;SDS011;8410;52.532;13.336;2023-07-22T09:04:03;7.15;;;4.03;;
16593;SDS011;8410;52.532;13.336;2023-07-22T09:06:31;4.35;;;3.63;;
16593;SDS011;8410;52.532;13.336;2023-07-22T09:09:00;4.68;;;4.22;;
16593;SDS011;8410;52.532;13.336;2023-07-22T09:11:31;4.82;;;4.18;;
16593;SDS011;8410;52.532;13.336;2023-07-22T09:13:59;5.63;;;3.83;;
16593;SDS011;8410;52.532;13.336;2023-07-22T09:16:29;4.53;;;4.13;;
16593;SDS011;8410;52.532;13.336;2023-07-22T09:18:58;6.57;;;4.45;;
16593;SDS011;8410;52.532;13.336;2023-07-22T09:21:27;5.60;;;3.90;;
16593;SDS011;8410;52.532;13.336;2023-07-22T09:23:55;3.83;;;3.40;;
16593;SDS011;8410;52.532;13.336;2023-07-22T09:26:22;5.97;;;4.30;;
16593;SDS011;8410;52.532;13.336;2023-07-22T09:28:51;5.00;;;4.03;;
16593;SDS011;8410;52.532;13.336;2023-07-22T09:31:20;3.80;;;3.50;;
16593;SDS011;8410;52.532;13.336;2023-07-22T09:33:48;6.18;;;3.97;;
16593;SDS011;8410;52.532;13.336;2023-07-22T09:36:17;4.32;;;3.90;;
16593;SDS011;8410;52.532;13.336;2023-07-22T09:38:46;5.72;;;3.67;;
16593;SDS011;8410;52.532;13.336;2023-07-22T09:41:27;3.63;;;3.33;;
16593;SDS011;8410;52.532;13.336;2023-07-22T09:43:55;7.20;;;3.50;;
16593;SDS011;8410;52.532;13.336;2023-07-22T09:46:23;4.53;;;3.40;;
16593;SDS011;8410;52.532;13.336;2023-07-22T09:49:01;3.63;;;3.33;;
16593;SDS011;8410;52.532;13.336;2023-07-22T09:51:33;5.50;;;3.58;;
16593;SDS011;8410;52.532;13.336;2023-07-22T09:54:07;3.83;;;3.33;;
16593;SDS011;8410;52.532;13.336;2023-07-22T09:56:42;3.75;;;3.22;;
16593;SDS011;8410;52.532;13.336;2023-07-22T09:59:11;4.40;;;3.28;;
16593;SDS011;8410;52.532;13.336;2023-07-22T10:01:39;3.42;;;2.47;;
16593;SDS011;8410;52.532;13.336;2023-07-22T10:04:08;2.67;;;2.40;;
16593;SDS011;8410;52.532;13.336;2023-07-22T10:06:37;4.00;;;2.60;;
16593;SDS011;8410;52.532;13.336;2023-07-22T10:09:08;3.13;;;2.67;;
16593;SDS011;8410;52.532;13.336;2023-07-22T10:11:39;4.03;;;2.90;;
16593;SDS011;8410;52.532;13.336;2023-07-22T10:14:06;2.78;;;2.58;;
16593;SDS011;8410;52.532;13.336;2023-07-22T10:16:34;2.85;;;2.65;;
16593;SDS011;8410;52.532;13.336;2023-07-22T10:19:02;3.55;;;3.13;;
16593;SDS011;8410;52.532;13.336;2023-07-22T10:21:32;4.55;;;2.65;;
16593;SDS011;8410;52.532;13.336;2023-07-22T10:24:01;3.83;;;2.90;;
16593;SDS011;8410;52.532;13.336;2023-07-22T10:26:31;3.90;;;2.92;;
16593;SDS011;8410;52.532;13.336;2023-07-22T10:29:13;4.18;;;3.25;;
16593;SDS011;8410;52.532;13.336;2023-07-22T10:31:41;4.45;;;3.10;;
16593;SDS011;8410;52.532;13.336;2023-07-22T10:34:08;3.97;;;3.30;;
16593;SDS011;8410;52.532;13.336;2023-07-22T10:36:36;3.03;;;2.83;;
16593;SDS011;8410;52.532;13.336;2023-07-22T10:39:04;3.97;;;3.47;;
16593;SDS011;8410;52.532;13.336;2023-07-22T10:41:33;3.38;;;2.92;;
16593;SDS011;8410;52.532;13.336;2023-07-22T10:44:05;4.53;;;2.90;;
16593;SDS011;8410;52.532;13.336;2023-07-22T10:46:34;4.70;;;2.60;;
16593;SDS011;8410;52.532;13.336;2023-07-22T10:49:11;3.00;;;2.72;;
16593;SDS011;8410;52.532;13.336;2023-07-22T10:51:39;3.13;;;2.65;;
16593;SDS011;8410;52.532;13.336;2023-07-22T10:54:11;4.10;;;3.28;;
16593;SDS011;8410;52.532;13.336;2023-07-22T10:56:42;6.05;;;3.05;;
16593;SDS011;8410;52.532;13.336;2023-07-22T10:59:10;4.32;;;3.70;;
16593;SDS011;8410;52.532;13.336;2023-07-22T11:01:38;3.50;;;3.20;;
16593;SDS011;8410;52.532;13.336;2023-07-22T11:04:07;4.25;;;3.67;;
16593;SDS011;8410;52.532;13.336;2023-07-22T11:06:37;4.80;;;3.55;;
16593;SDS011;8410;52.532;13.336;2023-07-22T11:09:06;5.05;;;3.42;;
16593;SDS011;8410;52.532;13.336;2023-07-22T11:11:37;5.30;;;3.50;;
16593;SDS011;8410;52.532;13.336;2023-07-22T11:14:17;4.35;;;3.50;;
16593;SDS011;8410;52.532;13.336;2023-07-22T11:16:45;3.70;;;3.40;;
16593;SDS011;8410;52.532;13.336;2023-07-22T11:19:14;3.67;;;3.35;;
16593;SDS011;8410;52.532;13.336;2023-07-22T11:21:43;5.43;;;3.53;;
16593;SDS011;8410;52.532;13.336;2023-07-22T11:24:11;5.45;;;4.15;;
16593;SDS011;8410;52.532;13.336;2023-07-22T11:26:39;3.83;;;3.53;;
16593;SDS011;8410;52.532;13.336;2023-07-22T11:29:10;4.63;;;3.22;;
16593;SDS011;8410;52.532;13.336;2023-07-22T11:31:40;4.07;;;3.78;;
16593;SDS011;8410;52.532;13.336;2023-07-22T11:34:09;5.88;;;3.45;;
16593;SDS011;8410;52.532;13.336;2023-07-22T11:36:36;4.68;;;4.10;;
16593;SDS011;8410;52.532;13.336;2023-07-22T11:39:04;4.30;;;3.90;;
16593;SDS011;8410;52.532;13.336;2023-07-22T11:41:33;5.00;;;3.72;;
16593;SDS011;8410;52.532;13.336;2023-07-22T11:44:02;4.40;;;4.00;;
16593;SDS011;8410;52.532;13.336;2023-07-22T11:46:34;4.88;;;3.92;;
16593;SDS011;8410;52.532;13.336;2023-07-22T11:49:04;4.22;;;3.80;;
16593;SDS011;8410;52.532;13.336;2023-07-22T11:51:31;4.38;;;3.90;;
16593;SDS011;8410;52.532;13.336;2023-07-22T11:53:59;4.20;;;3.80;;
16593;SDS011;8410;52.532;13.336;2023-07-22T11:56:27;5.25;;;3.80;;
16593;SDS011;8410;52.532;13.336;2023-07-22T11:58:56;4.07;;;3.67;;
16593;SDS011;8410;52.532;13.336;2023-07-22T12:01:23;5.10;;;3.88;;
16593;SDS011;8410;52.532;13.336;2023-07-22T12:03:55;4.38;;;3.97;;
16593;SDS011;8410;52.532;13.336;2023-07-22T12:06:26;4.30;;;3.90;;
16593;SDS011;8410;52.532;13.336;2023-07-22T12:08:54;3.90;;;3.60;;
16593;SDS011;8410;52.532;13.336;2023-07-22T12:11:22;4.75;;;4.00;;
16593;SDS011;8410;52.532;13.336;2023-07-22T12:14:03;4.00;;;3.63;;
16593;SDS011;8410;52.532;13.336;2023-07-22T12:16:32;4.03;;;3.63;;
16593;SDS011;8410;52.532;13.336;2023-07-22T12:19:02;4.38;;;3.95;;
16593;SDS011;8410;52.532;13.336;2023-07-22T12:21:31;4.00;;;3.60;;
16593;SDS011;8410;52.532;13.336;2023-07-22T12:23:59;5.70;;;4.15;;
16593;SDS011;8410;52.532;13.336;2023-07-22T12:26:27;4.00;;;3.67;;
16593;SDS011;8410;52.532;13.336;2023-07-22T12:28:55;4.53;;;3.83;;
16593;SDS011;8410;52.532;13.336;2023-07-22T12:31:22;4.05;;;3.42;;
16593;SDS011;8410;52.532;13.336;2023-07-22T12:33:50;5.35;;;4.13;;
16593;SDS011;8410;52.532;13.336;2023-07-22T12:36:18;4.82;;;3.88;;
16593;SDS011;8410;52.532;13.336;2023-07-22T12:38:46;4.60;;;3.95;;
16593;SDS011;8410;52.532;13.336;2023-07-22T12:41:14;5.07;;;3.90;;
16593;SDS011;8410;52.532;13.336;2023-07-22T12:43:41;5.03;;;4.53;;
16593;SDS011;8410;52.532;13.336;2023-07-22T12:46:09;5.55;;;4.28;;
16593;SDS011;8410;52.532;13.336;2023-07-22T12:48:37;5.55;;;5.05;;
16593;SDS011;8410;52.532;13.336;2023-07-22T12:51:04;4.68;;;4.28;;
16593;SDS011;8410;52.532;13.336;2023-07-22T12:53:32;4.85;;;4.38;;
16593;SDS011;8410;52.532;13.336;2023-07-22T12:56:01;4.80;;;4.40;;
16593;SDS011;8410;52.532;13.336;2023-07-22T12:58:29;5.07;;;4.25;;
16593;SDS011;8410;52.532;13.336;2023-07-22T13:00:58;4.93;;;4.35;;
16593;SDS011;8410;52.532;13.336;2023-07-22T13:03:25;5.05;;;4.47;;
16593;SDS011;8410;52.532;13.336;2023-07-22T13:05:53;4.05;;;3.65;;
16593;SDS011;8410;52.532;13.336;2023-07-22T13:08:20;4.40;;;4.00;;
16593;SDS011;8410;52.532;13.336;2023-07-22T13:10:48;5.38;;;4.63;;
16593;SDS011;8410;52.532;13.336;2023-07-22T13:13:17;5.05;;;4.47;;
16593;SDS011;8410;52.532;13.336;2023-07-22T13:15:44;4.95;;;4.43;;
16593;SDS011;8410;52.532;13.336;2023-07-22T13:18:12;5.43;;;4.93;;
16593;SDS011;8410;52.532;13.336;2023-07-22T13:20:42;5.40;;;4.57;;
16593;SDS011;8410;52.532;13.336;2023-07-22T13:23:10;4.50;;;4.10;;
16593;SDS011;8410;52.532;13.336;2023-07-22T13:25:38;4.97;;;4.47;;
16593;SDS011;8410;52.532;13.336;2023-07-22T13:28:05;5.03;;;4.55;;
16593;SDS011;8410;52.532;13.336;2023-07-22T13:30:34;4.57;;;4.15;;
16593;SDS011;8410;52.532;13.336;2023-07-22T13:33:01;4.72;;;4.32;;
16593;SDS011;8410;52.532;13.336;2023-07-22T13:35:29;4.70;;;4.30;;
16593;SDS011;8410;52.532;13.336;2023-07-22T13:37:57;4.53;;;4.13;;
16593;SDS011;8410;52.532;13.336;2023-07-22T13:40:24;4.45;;;4.05;;
16593;SDS011;8410;52.532;13.336;2023-07-22T13:42:52;5.07;;;3.97;;
16593;SDS011;8410;52.532;13.336;2023-07-22T13:45:19;4.65;;;4.25;;
16593;SDS011;8410;52.532;13.336;2023-07-22T13:47:48;4.90;;;4.40;;
16593;SDS011;8410;52.532;13.336;2023-07-22T13:50:16;4.68;;;4.28;;
16593;SDS011;8410;52.532;13.336;2023-07-22T13:52:43;4.78;;;4.22;;
16593;SDS011;8410;52.532;13.336;2023-07-22T13:55:11;4.70;;;4.20;;
16593;SDS011;8410;52.532;13.336;2023-07-22T13:57:38;4.20;;;3.90;;
16593;SDS011;8410;52.532;13.336;2023-07-22T14:00:06;5.03;;;4.55;;
16593;SDS011;8410;52.532;13.336;2023-07-22T14:02:36;3.97;;;3.67;;
16593;SDS011;8410;52.532;13.336;2023-07-22T14:05:06;6.20;;;4.68;;
16593;SDS011;8410;52.532;13.336;2023-07-22T14:07:34;5.57;;;4.13;;
16593;SDS011;8410;52.532;13.336;2023-07-22T14:10:02;5.00;;;4.50;;
16593;SDS011;8410;52.532;13.336;2023-07-22T14:12:31;4.80;;;4.40;;
16593;SDS011;8410;52.532;13.336;2023-07-22T14:14:58;4.07;;;3.67;;
16593;SDS011;8410;52.532;13.336;2023-07-22T14:17:26;4.57;;;4.18;;
16593;SDS011;8410;52.532;13.336;2023-07-22T14:19:53;4.10;;;3.70;;
16593;SDS011;8410;52.532;13.336;2023-07-22T14:22:22;3.78;;;3.47;;
16593;SDS011;8410;52.532;13.336;2023-07-22T14:24:49;4.40;;;4.00;;
16593;SDS011;8410;52.532;13.336;2023-07-22T14:27:17;4.68;;;4.10;;
16593;SDS011;8410;52.532;13.336;2023-07-22T14:29:44;4.47;;;4.07;;
16593;SDS011;8410;52.532;13.336;2023-07-22T14:32:12;5.20;;;4.70;;
16593;SDS011;8410;52.532;13.336;2023-07-22T14:34:42;4.45;;;4.05;;
16593;SDS011;8410;52.532;13.336;2023-07-22T14:37:09;4.18;;;3.83;;
16593;SDS011;8410;52.532;13.336;2023-07-22T14:39:38;4.75;;;4.18;;
16593;SDS011;8410;52.532;13.336;2023-07-22T14:42:06;4.57;;;4.03;;
16593;SDS011;8410;52.532;13.336;2023-07-22T14:44:34;4.70;;;3.88;;
16593;SDS011;8410;52.532;13.336;2023-07-22T14:47:01;4.60;;;4.22;;
16593;SDS011;8410;52.532;13.336;2023-07-22T14:49:29;4.35;;;3.95;;
16593;SDS011;8410;52.532;13.336;2023-07-22T14:51:57;5.78;;;5.05;;
16593;SDS011;8410;52.532;13.336;2023-07-22T14:54:24;4.22;;;3.83;;